Mangum, Oklahoma
Current Conditions -  °F | °C
As of 3:35 PM on Monday 24 Nov 2014 (Local Time) from KAXS Reporting Station
Clear Clear  
Wind Chill: 60°   Ceiling: Unl
Heat Index: 60°   Visibility: 10mi
Dew Point: 24°   Wind: 10mph
Humidity: 24%   Direction: 250°WSW
Pressure: 30.02"   Gusts: NA
Location:  34.87°N, 99.5°W
Report Text: KAXS 242135Z AUTO 25009KT 10SM CLR 16/M05 A3002 RMK AO2 T01581047
Loading
Personal Weather Stations






























Interactive Weather Map New forecast layout! Learn more

10-Day Weather Forecast

Advertisements
Track Severe Weather on mobile